Latest Weather Observations for Mount Crawford

IDS60901

Issued at 8:01 pm CST Sunday 25 June 2017 (issued every 10 minutes, with the page automatically refreshed every 10 minutes)

About weather observations | Map of Adelaide area stations | Latest observations for Adelaide area | Other Formats
Station Details ID: 023878 Name: MOUNT CRAWFORD AWS Lat: -34.73 Lon: 138.93 Height: 525.0 m
Data from the previous 72 hours. | See also: Recent months at Mount Crawford
Date/Time
CST
Temp
°C
App
Temp
°C
Dew
Point
°C
Rel
Hum
%
Delta-T
°C
Wind Press
QNH
hPa
Press
MSL
hPa
Rain since
9am
mm
Dir  Spd
km/h
Gust
km/h
Spd
kts
Gust
kts
25/08:00pm 7.4 3.6 7.4 100 0.0 W 17 22 9 12 1020.6 1021.0 0.8
25/07:30pm 7.2 4.1 7.2 100 0.0 W 13 19 7 10 1020.3 1020.6 0.8
25/07:00pm 7.2 4.1 7.2 100 0.0 W 13 17 7 9 1020.2 1020.5 0.8
25/06:30pm 7.4 3.9 7.4 100 0.0 W 15 20 8 11 1020.1 1020.4 0.8
25/06:00pm 7.6 4.2 7.6 100 0.0 W 15 22 8 12 1019.9 1020.2 0.8
25/05:30pm 7.5 4.8 7.5 100 0.0 W 11 17 6 9 1019.8 1020.1 0.8
25/05:00pm 7.7 4.3 7.7 100 0.0 W 15 20 8 11 1019.8 1020.1 0.8
25/04:30pm 8.2 4.9 8.2 100 0.0 WSW 15 22 8 12 1019.6 1019.9 0.8
25/04:00pm 8.4 5.2 8.4 100 0.0 WSW 15 24 8 13 1019.5 1019.8 0.8
25/03:30pm 8.2 4.2 8.2 100 0.0 WSW 19 28 10 15 1019.2 1019.5 0.8
25/03:00pm 8.9 6.2 8.9 100 0.0 WSW 13 22 7 12 1018.8 1019.2 0.4
25/02:30pm 8.7 4.8 8.7 100 0.0 W 19 26 10 14 1018.5 1018.8 0.2
25/02:00pm 9.2 4.8 9.1 99 0.1 W 22 37 12 20 1018.3 1018.6 0.0
25/01:30pm 9.4 6.0 9.3 99 0.1 W 17 28 9 15 1018.4 1018.7 0.0
25/01:00pm 10.0 6.4 9.9 99 0.1 W 19 28 10 15 1018.6 1018.9 0.0
25/12:30pm 9.7 6.4 9.7 100 0.0 WNW 17 20 9 11 1018.9 1019.3 0.0
25/12:00pm 9.5 5.6 9.5 100 0.0 WNW 20 32 11 17 1019.0 1019.4 0.0
25/11:30am 8.8 4.9 8.8 100 0.0 WNW 19 28 10 15 1019.4 1019.7 0.0
25/11:00am 8.7 5.6 8.7 100 0.0 WNW 15 22 8 12 1019.6 1019.9 0.0
25/10:30am 8.6 4.7 8.6 100 0.0 W 19 24 10 13 1019.6 1019.9 0.0
25/10:00am 8.0 5.1 8.0 100 0.0 WNW 13 19 7 10 1019.6 1019.9 0.0
25/09:30am 7.6 4.2 7.6 100 0.0 WNW 15 17 8 9 1019.4 1019.7 0.0
25/09:00am 7.5 4.1 7.5 100 0.0 W 15 20 8 11 1019.0 1019.4 0.0
25/08:30am 7.3 3.8 7.3 100 0.0 WNW 15 24 8 13 1018.6 1018.9 0.0
25/08:00am 7.4 3.6 7.4 100 0.0 WNW 17 22 9 12 1018.6 1018.9 0.0
25/07:30am 7.7 3.6 7.7 100 0.0 WNW 19 24 10 13 1018.3 1018.6 0.0
25/07:00am 7.7 3.6 7.7 100 0.0 WNW 19 28 10 15 1018.0 1018.3 0.0
25/06:30am 7.5 3.7 7.5 100 0.0 WNW 17 22 9 12 1017.7 1018.0 0.0
25/06:00am 7.7 4.3 7.7 100 0.0 WNW 15 24 8 13 1017.4 1017.7 0.0
25/05:30am 8.0 4.3 8.0 100 0.0 WNW 17 24 9 13 1017.3 1017.6 0.0
25/05:00am 8.2 4.9 8.2 100 0.0 W 15 24 8 13 1017.3 1017.6 0.0
25/04:30am 7.8 4.8 7.8 100 0.0 WNW 13 19 7 10 1017.4 1017.7 0.0
25/04:00am 8.1 4.8 8.0 99 0.0 WNW 15 20 8 11 1017.5 1017.8 0.0
25/03:30am 8.2 5.3 8.1 99 0.0 WNW 13 19 7 10 1017.5 1017.8 0.0
25/03:00am 8.4 5.9 8.3 99 0.0 WNW 11 15 6 8 1017.7 1018.0 0.0
25/02:30am 8.6 6.2 8.5 99 0.0 W 11 15 6 8 1018.0 1018.3 0.0
25/02:00am 8.4 6.5 7.5 94 0.4 NW 7 9 4 5 1017.9 1018.2 0.0
25/01:30am 8.1 5.2 6.6 90 0.7 W 11 13 6 7 1017.8 1018.1 0.0
25/01:00am 9.0 6.6 6.8 86 1.1 WNW 9 13 5 7 1018.0 1018.3 0.0
25/12:30am 9.3 7.8 6.7 84 1.2 NNW 4 7 2 4 1018.0 1018.3 0.0
25/12:00am 9.2 8.5 6.8 85 1.2 CALM 0 6 0 3 1018.0 1018.3 0.0
 
Date/Time
CST
Temp
°C
App
Temp
°C
Dew
Point
°C
Rel
Hum
%
Delta-T
°C
Wind Press
QNH
hPa
Press
MSL
hPa
Rain since
9am
mm
Dir  Spd
km/h
Gust
km/h
Spd
kts
Gust
kts
24/11:30pm 9.5 7.4 6.8 83 1.3 WNW 7 9 4 5 1018.2 1018.5 0.0
24/11:00pm 9.6 9.0 7.2 85 1.2 CALM 0 0 0 0 1018.3 1018.6 0.0
24/10:30pm 9.8 7.9 6.9 82 1.4 SSW 6 7 3 4 1018.3 1018.6 0.0
24/10:00pm 10.0 8.0 6.9 81 1.5 S 7 7 4 4 1018.2 1018.5 0.0
24/09:30pm 9.9 7.9 7.0 82 1.4 S 7 11 4 6 1018.3 1018.6 0.0
24/09:00pm 10.0 7.6 7.1 82 1.4 SSE 9 13 5 7 1018.4 1018.7 0.0
24/08:30pm 9.8 7.1 7.4 85 1.2 SSE 11 11 6 6 1018.5 1018.8 0.0
24/08:00pm 10.2 7.1 7.3 82 1.4 SSW 13 15 7 8 1018.3 1018.6 0.0
24/07:30pm 9.6 6.6 7.5 87 1.0 SSW 13 15 7 8 1018.1 1018.4 0.0
24/07:00pm 9.7 6.6 7.1 84 1.3 SSW 13 13 7 7 1018.0 1018.3 0.0
24/06:30pm 10.2 7.4 7.1 81 1.5 SSW 11 13 6 7 1017.8 1018.1 0.0
24/06:00pm 10.1 6.6 7.2 82 1.4 SSW 15 17 8 9 1017.7 1018.0 0.0
24/05:30pm 10.3 6.8 7.0 80 1.6 SW 15 20 8 11 1017.6 1017.9 0.0
24/05:00pm 10.9 8.1 7.0 77 1.9 SW 11 15 6 8 1017.6 1017.9 0.0
24/04:30pm 11.8 9.7 8.1 78 1.9 SW 9 15 5 8 1017.6 1017.9 0.0
24/04:00pm 12.7 10.6 8.4 75 2.2 WSW 9 15 5 8 1017.5 1017.8 0.0
24/03:30pm 12.9 11.2 9.7 81 1.7 SW 9 11 5 6 1017.5 1017.8 0.0
24/03:00pm 12.7 10.5 9.3 80 1.8 SW 11 17 6 9 1017.5 1017.8 0.0
24/02:30pm 13.0 10.2 7.0 67 3.0 WNW 11 17 6 9 1017.6 1017.9 0.0
24/02:00pm 13.0 10.6 7.0 67 3.0 W 9 15 5 8 1017.7 1018.0 0.0
24/01:30pm 13.2 10.6 6.3 63 3.4 WSW 9 15 5 8 1017.8 1018.1 0.0
24/01:00pm 13.1 10.8 7.5 69 2.8 N 9 13 5 7 1018.0 1018.3 0.0
24/12:30pm 12.3 9.9 8.6 78 1.9 N 11 13 6 7 1018.5 1018.8 0.0
24/12:00pm 12.7 10.8 9.2 79 1.8 NE 9 11 5 6 1018.9 1019.3 0.0
24/11:30am 12.6 11.1 9.2 80 1.8 E 7 13 4 7 1019.3 1019.6 0.0
24/11:00am 12.7 11.2 11.9 95 0.4 NE 11 15 6 8 1019.6 1019.9 0.0
24/10:30am 10.5 8.5 10.3 99 0.1 ENE 11 15 6 8 1019.9 1020.2 0.0
24/10:00am 9.6 7.0 9.5 99 0.1 ESE 13 19 7 10 1020.0 1020.3 0.0
24/09:30am 10.7 8.0 10.2 97 0.3 ESE 15 19 8 10 1019.9 1020.2 0.0
24/09:00am 10.4 8.4 10.2 99 0.1 E 11 13 6 7 1019.6 1019.9 0.0
24/08:30am 9.4 6.8 9.4 100 0.0 ESE 13 15 7 8 1019.3 1019.6 0.0
24/08:00am 8.4 5.6 8.4 100 0.0 ESE 13 15 7 8 1019.3 1019.6 0.0
24/07:30am 7.8 5.2 7.8 100 0.0 ESE 11 13 6 7 1019.2 1019.5 0.0
24/07:00am 8.1 5.6 8.1 100 0.0 SE 11 15 6 8 1018.9 1019.3 0.0
24/06:30am 8.8 6.1 8.8 100 0.0 SSE 13 15 7 8 1018.7 1019.0 0.0
24/06:00am 8.8 6.0 8.7 99 0.0 SSE 13 17 7 9 1018.3 1018.6 0.0
24/05:30am 8.2 4.5 7.8 97 0.2 SSE 17 19 9 10 1018.1 1018.4 0.0
24/05:00am 8.5 5.6 6.3 86 1.0 SE 11 13 6 7 1018.1 1018.4 0.0
24/04:30am 9.2 6.5 7.2 87 1.0 SSE 11 13 6 7 1018.1 1018.4 0.0
24/04:00am 9.7 7.7 6.1 78 1.7 S 6 7 3 4 1018.2 1018.5 0.0
24/03:30am 9.5 7.6 6.6 82 1.4 S 6 6 3 3 1018.2 1018.5 0.0
24/03:00am 8.8 6.8 7.3 90 0.7 SW 7 7 4 4 1018.1 1018.4 0.0
24/02:30am 8.6 5.7 6.6 87 1.0 WNW 11 13 6 7 1018.1 1018.4 0.0
24/02:00am 8.7 5.8 6.7 87 1.0 WNW 11 13 6 7 1018.1 1018.4 0.0
24/01:30am 8.8 6.0 6.8 87 1.0 NW 11 13 6 7 1018.2 1018.5 0.0
24/01:00am 8.3 5.4 6.4 88 0.9 NW 11 13 6 7 1018.4 1018.7 0.0
24/12:30am 8.2 4.8 6.0 86 1.0 NNW 13 17 7 9 1018.3 1018.6 0.0
24/12:00am 8.4 5.0 6.0 85 1.1 NNW 13 17 7 9 1018.6 1018.9 0.0
 
Date/Time
CST
Temp
°C
App
Temp
°C
Dew
Point
°C
Rel
Hum
%
Delta-T
°C
Wind Press
QNH
hPa
Press
MSL
hPa
Rain since
9am
mm
Dir  Spd
km/h
Gust
km/h
Spd
kts
Gust
kts
23/11:30pm 8.6 4.7 5.4 80 1.5 NNW 15 17 8 9 1018.5 1018.8 0.0
23/11:00pm 9.5 6.3 3.3 65 2.8 WNW 9 11 5 6 1018.5 1018.8 0.0
23/10:30pm 10.6 7.1 3.6 62 3.2 SW 11 13 6 7 1018.5 1018.8 0.0
23/10:00pm 10.6 7.0 3.2 60 3.3 SW 11 13 6 7 1018.4 1018.7 0.0
23/09:30pm 11.0 7.6 3.8 61 3.3 SW 11 13 6 7 1018.4 1018.7 0.0
23/09:00pm 10.9 7.6 2.5 56 3.7 SW 9 13 5 7 1018.3 1018.6 0.0
23/08:30pm 10.6 7.0 2.7 58 3.5 SSW 11 13 6 7 1017.9 1018.2 0.0
23/08:00pm 11.0 7.5 3.3 59 3.5 SW 11 13 6 7 1017.9 1018.2 0.0
23/07:30pm 10.9 7.1 3.7 61 3.3 SW 13 15 7 8 1017.9 1018.2 0.0
23/07:00pm 10.6 7.2 4.1 64 3.0 WSW 11 13 6 7 1017.8 1018.1 0.0
23/06:30pm 10.7 7.2 3.5 61 3.3 WSW 11 13 6 7 1017.5 1017.8 0.0
23/06:00pm 10.6 7.2 4.1 64 3.0 W 11 13 6 7 1017.1 1017.3 0.0
23/05:30pm 10.7 7.4 4.8 67 2.7 W 11 13 6 7 1016.9 1017.2 0.0
23/05:00pm 11.2 8.0 5.3 67 2.8 W 11 13 6 7 1016.9 1017.2 0.0
23/04:30pm 11.9 8.8 5.5 65 3.1 W 11 15 6 8 1017.1 1017.3 0.0
23/04:00pm 12.1 9.5 6.2 67 2.9 W 9 13 5 7 1016.9 1017.2 0.0
23/03:30pm 12.8 9.2 5.2 60 3.6 W 13 17 7 9 1016.9 1017.2 0.0
23/03:00pm 13.3 10.0 4.7 56 4.1 W 11 19 6 10 1017.2 1017.4 0.0
23/02:30pm 14.2 10.3 5.3 55 4.3 WNW 15 19 8 10 1016.7 1017.0 0.0
23/02:00pm 14.0 10.0 4.9 54 4.4 W 15 20 8 11 1016.9 1017.2 0.0
23/01:30pm 14.8 10.9 5.3 53 4.6 W 15 22 8 12 1016.9 1017.2 0.0
23/01:00pm 14.1 9.5 5.5 56 4.2 WNW 19 28 10 15 1017.6 1017.9 0.0
23/12:30pm 13.6 9.2 4.7 55 4.2 WNW 17 26 9 14 1017.7 1018.0 0.0
23/12:00pm 13.3 8.9 4.7 56 4.1 NW 17 26 9 14 1017.9 1018.2 0.0
23/11:30am 12.5 8.6 5.2 61 3.5 NW 15 20 8 11 1018.1 1018.4 0.0
23/11:00am 12.4 8.5 5.3 62 3.4 NW 15 19 8 10 1018.7 1019.0 0.0
23/10:30am 11.6 7.9 4.3 61 3.4 WNW 13 19 7 10 1018.7 1019.0 0.0
23/10:00am 10.8 7.0 4.0 63 3.1 NW 13 17 7 9 1018.8 1019.2 0.0
23/09:30am 10.2 5.6 3.5 63 3.0 NW 17 22 9 12 1018.8 1019.2 0.0
23/09:00am 9.5 4.8 3.0 64 2.9 NW 17 22 9 12 1018.9 1019.3 0.0
23/08:30am 8.8 3.6 2.6 65 2.7 NNW 19 22 10 12 1018.5 1018.8 0.0
23/08:00am 8.4 4.7 2.6 67 2.5 N 11 15 6 8 1018.3 1018.6 0.0
23/07:30am 9.0 4.7 3.0 66 2.6 NW 15 20 8 11 1018.4 1018.7 0.0
23/07:00am 8.3 4.2 2.3 66 2.6 NNW 13 17 7 9 1018.1 1018.4 0.0
23/06:30am 8.4 3.9 2.2 65 2.7 NNW 15 17 8 9 1018.0 1018.3 0.0
23/06:00am 8.7 3.8 2.3 64 2.8 NNW 17 20 9 11 1018.0 1018.3 0.0
23/05:30am 8.3 4.1 1.9 64 2.7 N 13 19 7 10 1017.5 1017.8 0.0
23/05:00am 8.9 3.6 2.0 62 3.0 NNW 19 24 10 13 1018.1 1018.4 0.0
23/04:30am 9.0 4.1 2.1 62 3.0 NNW 17 20 9 11 1018.2 1018.5 0.0
23/04:00am 9.1 3.8 2.0 61 3.1 NNW 19 22 10 12 1018.6 1018.9 0.0
23/03:30am 9.0 4.1 1.7 60 3.1 NNW 17 22 9 12 1018.5 1018.8 0.0
23/03:00am 9.2 4.2 1.6 59 3.2 NNW 17 20 9 11 1018.8 1019.2 0.0
23/02:30am 9.4 4.4 1.6 58 3.3 NNW 17 22 9 12 1018.9 1019.3 0.0
23/02:00am 9.5 4.1 1.2 56 3.5 NNW 19 22 10 12 1019.3 1019.6 0.0
23/01:30am 9.7 4.6 0.6 53 3.8 N 17 19 9 10 1019.4 1019.7 0.0
23/01:00am 10.1 5.3 0.4 51 4.1 NNW 15 20 8 11 1019.7 1020.0 0.0
23/12:30am 10.0 4.9 0.6 52 3.9 N 17 20 9 11 1019.8 1020.1 0.0
23/12:00am 9.5 5.2 0.9 55 3.6 N 13 19 7 10 1020.0 1020.3 0.0
 
Date/Time
CST
Temp
°C
App
Temp
°C
Dew
Point
°C
Rel
Hum
%
Delta-T
°C
Wind Press
QNH
hPa
Press
MSL
hPa
Rain since
9am
mm
Dir  Spd
km/h
Gust
km/h
Spd
kts
Gust
kts
22/11:30pm 9.3 4.6 1.0 56 3.5 N 15 19 8 10 1020.4 1020.7 0.0
22/11:00pm 9.4 4.7 1.1 56 3.5 N 15 17 8 9 1020.6 1021.0 0.0
22/10:30pm 9.8 5.1 1.2 55 3.7 N 15 20 8 11 1020.9 1021.3 0.0
22/10:00pm 9.3 4.6 1.2 57 3.4 N 15 20 8 11 1021.0 1021.4 0.0
22/09:30pm 9.7 5.5 1.6 57 3.5 NNE 13 19 7 10 1021.3 1021.6 0.0
22/09:00pm 9.6 5.4 1.8 58 3.4 NNE 13 20 7 11 1021.4 1021.7 0.0
22/08:30pm 9.9 5.4 2.3 59 3.3 NNE 15 20 8 11 1021.4 1021.7 0.0

Latest Capital City Observations: Canberra | Sydney | Melbourne | Brisbane | Adelaide | Perth | Hobart | Darwin

Other Formats:

Comma delimited format used in spreadsheet applications
http://www.bom.gov.au/fwo/IDS60901/IDS60901.94678.axf

JavaScript Object Notation format (JSON) in row-major order
http://www.bom.gov.au/fwo/IDS60901/IDS60901.94678.json